createdAt,value
2018-06-18T00:00:43.877Z,100544.34
2018-06-18T00:01:49.878Z,100532.48
2018-06-18T00:02:55.819Z,100535.59
2018-06-18T00:04:02.119Z,100534.62
2018-06-18T00:05:08.101Z,100533.49
2018-06-18T00:06:14.027Z,100537.76
2018-06-18T00:07:19.986Z,100534.94
2018-06-18T00:08:25.961Z,100537.96
2018-06-18T00:09:32.052Z,100542.68
2018-06-18T00:10:38.259Z,100539.53
2018-06-18T00:11:44.951Z,100546.03
2018-06-18T00:12:50.890Z,100537.92
2018-06-18T00:13:56.915Z,100538.28
2018-06-18T00:15:03.197Z,100534.28
2018-06-18T00:16:09.146Z,100538.77
2018-06-18T00:17:15.069Z,100541.42
2018-06-18T00:18:20.999Z,100538.89
2018-06-18T00:19:26.929Z,100540.86
2018-06-18T00:20:32.854Z,100542.68
2018-06-18T00:21:38.774Z,100541.83
2018-06-18T00:22:44.771Z,100547.16
2018-06-18T00:23:50.496Z,100548.37
2018-06-18T00:24:56.431Z,100548.85
2018-06-18T00:26:02.410Z,100550.19
2018-06-18T00:27:08.338Z,100550.19
2018-06-18T00:28:14.273Z,100551.03
2018-06-18T00:29:20.335Z,100550.19
2018-06-18T00:30:26.257Z,100555.99
2018-06-18T00:31:32.217Z,100550.43
2018-06-18T00:32:38.177Z,100557.94
2018-06-18T00:33:44.086Z,100556.97
2018-06-18T00:34:50.031Z,100558.17
2018-06-18T00:35:55.947Z,100560.48
2018-06-18T00:37:01.859Z,100556.36
2018-06-18T00:38:07.801Z,100557.69
2018-06-18T00:39:13.750Z,100558.66
2018-06-18T00:40:19.361Z,100555.35
2018-06-18T00:41:25.207Z,100557.41
2018-06-18T00:42:31.276Z,100559.10
2018-06-18T00:43:37.382Z,100559.10
2018-06-18T00:44:43.376Z,100556.80
2018-06-18T00:45:49.318Z,100557.48
2018-06-18T00:46:55.494Z,100561.36
2018-06-18T00:48:01.065Z,100558.70
2018-06-18T00:49:06.915Z,100558.34
2018-06-18T00:50:12.905Z,100564.63
2018-06-18T00:51:18.872Z,100561.48
2018-06-18T00:52:24.866Z,100566.94
2018-06-18T00:53:30.794Z,100562.25
2018-06-18T00:54:36.509Z,100562.53
2018-06-18T00:56:19.299Z,100560.84
2018-06-18T00:57:25.237Z,100559.63
2018-06-18T00:58:31.186Z,100558.78
2018-06-18T00:59:37.103Z,100562.29
2018-06-18T01:00:43.030Z,100562.29
2018-06-18T01:01:49.006Z,100564.11
2018-06-18T01:02:54.999Z,100559.06
2018-06-18T01:04:00.751Z,100558.30
2018-06-18T01:05:06.730Z,100555.44
2018-06-18T01:06:12.705Z,100555.08
2018-06-18T01:07:18.670Z,100551.69
2018-06-18T01:08:24.306Z,100558.83
2018-06-18T01:09:30.509Z,100556.45
2018-06-18T01:10:36.819Z,100557.90
2018-06-18T01:11:42.818Z,100558.54
2018-06-18T01:12:48.811Z,100552.48
2018-06-18T01:13:54.739Z,100558.09
2018-06-18T01:15:00.737Z,100562.09
2018-06-18T01:16:07.066Z,100554.58
2018-06-18T01:17:12.954Z,100554.43
2018-06-18T01:18:18.934Z,100555.76
2018-06-18T01:19:25.045Z,100548.50
2018-06-18T01:20:31.010Z,100552.37
2018-06-18T01:21:36.946Z,100553.70
2018-06-18T01:22:47.794Z,100554.88
2018-06-18T01:24:02.043Z,100553.82
2018-06-18T01:25:08.531Z,100553.82
2018-06-18T01:26:14.497Z,100556.13
2018-06-18T01:27:20.197Z,100557.25
2018-06-18T01:28:26.054Z,100551.92
2018-06-18T01:29:31.990Z,100558.22
2018-06-18T01:30:38.224Z,100556.16
2018-06-18T01:31:44.149Z,100560.67
2018-06-18T01:32:50.083Z,100557.28
2018-06-18T01:34:01.570Z,100554.74
2018-06-18T01:35:09.140Z,100565.03
2018-06-18T01:36:15.110Z,100562.03
2018-06-18T01:37:21.063Z,100566.36
2018-06-18T01:38:26.984Z,100559.70
2018-06-18T01:39:32.926Z,100562.73
2018-06-18T01:40:38.926Z,100568.41
2018-06-18T01:41:45.123Z,100565.03
2018-06-18T01:42:51.034Z,100562.87
2018-06-18T01:43:56.994Z,100565.03
2018-06-18T01:45:02.910Z,100570.23
2018-06-18T01:46:08.890Z,100569.63
2018-06-18T01:47:14.802Z,100571.16
2018-06-18T01:48:20.752Z,100568.98
2018-06-18T01:49:26.991Z,100572.02
2018-06-18T01:50:32.956Z,100569.83
2018-06-18T01:51:38.915Z,100570.19
2018-06-18T01:52:44.953Z,100571.41
2018-06-18T01:53:50.911Z,100575.16
2018-06-18T01:54:56.830Z,100578.18
2018-06-18T01:56:02.744Z,100576.84
2018-06-18T01:57:08.690Z,100583.50
2018-06-18T01:58:14.657Z,100582.17
2018-06-18T01:59:20.583Z,100578.66
2018-06-18T02:00:26.558Z,100575.52
2018-06-18T02:01:32.498Z,100579.87
2018-06-18T02:02:38.419Z,100576.84
2018-06-18T02:03:44.166Z,100578.58
2018-06-18T02:04:50.108Z,100578.85
2018-06-18T02:05:56.042Z,100582.00
2018-06-18T02:07:02.267Z,100581.00
2018-06-18T02:08:08.228Z,100582.69
2018-06-18T02:09:14.276Z,100587.80
2018-06-18T02:10:20.319Z,100586.72
2018-06-18T02:11:26.435Z,100585.75
2018-06-18T02:12:32.515Z,100579.82
2018-06-18T02:13:38.455Z,100579.67
2018-06-18T02:14:44.389Z,100584.66
2018-06-18T02:15:50.362Z,100581.00
2018-06-18T02:16:56.285Z,100579.34
2018-06-18T02:18:02.244Z,100573.16
2018-06-18T02:19:08.320Z,100578.48
2018-06-18T02:20:14.253Z,100574.25
2018-06-18T02:21:20.201Z,100579.73
2018-06-18T02:22:26.114Z,100580.22
2018-06-18T02:23:32.064Z,100577.31
2018-06-18T02:24:37.999Z,100583.00
2018-06-18T02:25:47.364Z,100575.98
2018-06-18T02:26:58.775Z,100571.30
2018-06-18T02:28:09.878Z,100575.77
2018-06-18T02:29:21.173Z,100578.06
2018-06-18T02:30:32.223Z,100584.84
2018-06-18T02:31:43.236Z,100581.97
2018-06-18T02:32:54.449Z,100583.42
2018-06-18T02:34:05.643Z,100577.52
2018-06-18T02:35:16.849Z,100589.13
2018-06-18T02:36:28.115Z,100585.53
2018-06-18T02:37:39.231Z,100588.31
2018-06-18T02:38:50.310Z,100591.48
2018-06-18T02:40:01.352Z,100585.22
2018-06-18T02:41:07.095Z,100593.08
2018-06-18T02:42:12.968Z,100588.72
2018-06-18T02:43:19.462Z,100585.85
2018-06-18T02:44:25.502Z,100588.38
2018-06-18T02:45:31.478Z,100592.52
2018-06-18T02:46:37.450Z,100594.22
2018-06-18T02:47:43.392Z,100600.62
2018-06-18T02:48:49.518Z,100599.17
2018-06-18T02:49:55.718Z,100597.95
2018-06-18T02:51:01.698Z,100605.45
2018-06-18T02:52:08.426Z,100602.43
2018-06-18T02:53:14.464Z,100604.73
2018-06-18T02:54:20.067Z,100603.39
2018-06-18T02:55:25.898Z,100606.42
2018-06-18T02:56:52.919Z,100611.38
2018-06-18T02:57:58.858Z,100607.92
2018-06-18T02:59:04.915Z,100613.23
2018-06-18T03:00:10.884Z,100613.23
2018-06-18T03:01:16.819Z,100609.84
2018-06-18T03:02:22.812Z,100607.19
2018-06-18T03:03:28.739Z,100601.60
2018-06-18T03:04:34.520Z,100601.75
2018-06-18T03:05:40.138Z,100599.09
2018-06-18T03:06:45.979Z,100596.19
2018-06-18T03:07:52.347Z,100597.63
2018-06-18T03:08:58.261Z,100595.45
2018-06-18T03:10:04.758Z,100595.20
2018-06-18T03:11:10.762Z,100600.30
2018-06-18T03:12:16.707Z,100599.45
2018-06-18T03:13:22.648Z,100602.50
2018-06-18T03:14:28.654Z,100597.18
2018-06-18T03:15:34.648Z,100603.70
2018-06-18T03:16:40.591Z,100598.89
2018-06-18T03:17:46.556Z,100603.36
2018-06-18T03:18:57.759Z,100598.38
2018-06-18T03:21:12.214Z,100595.87
2018-06-18T03:22:23.067Z,100606.16
2018-06-18T03:23:34.200Z,100599.99
2018-06-18T03:24:45.391Z,100603.50
2018-06-18T03:25:56.442Z,100606.16
2018-06-18T03:27:07.711Z,100605.09
2018-06-18T03:28:18.778Z,100603.88
2018-06-18T03:29:27.273Z,100603.40
2018-06-18T03:30:33.258Z,100606.31
2018-06-18T03:31:39.338Z,100600.63
2018-06-18T03:32:45.353Z,100602.27
2018-06-18T03:33:51.299Z,100602.27
2018-06-18T03:34:57.355Z,100603.21
2018-06-18T03:36:03.295Z,100602.34
2018-06-18T03:37:10.570Z,100604.30
2018-06-18T03:38:16.598Z,100608.75
2018-06-18T03:39:22.554Z,100610.21
2018-06-18T03:40:28.058Z,100609.58
2018-06-18T03:41:33.907Z,100616.36
2018-06-18T03:42:40.504Z,100611.73
2018-06-18T03:43:51.462Z,100614.86
2018-06-18T03:45:03.527Z,100613.90
2018-06-18T03:46:09.479Z,100616.77
2018-06-18T03:47:20.962Z,100617.02
2018-06-18T03:48:26.907Z,100617.75
2018-06-18T03:49:33.087Z,100617.59
2018-06-18T03:50:39.051Z,100620.88
2018-06-18T03:51:44.968Z,100619.87
2018-06-18T03:52:51.022Z,100622.53
2018-06-18T03:53:56.961Z,100620.02
2018-06-18T03:55:09.496Z,100620.23
2018-06-18T03:56:15.444Z,100621.56
2018-06-18T03:57:21.273Z,100623.14
2018-06-18T03:58:27.182Z,100625.30
2018-06-18T03:59:33.107Z,100628.31
2018-06-18T04:01:52.439Z,100630.73
2018-06-18T04:03:04.535Z,100635.60
2018-06-18T04:04:15.750Z,100633.16
2018-06-18T04:05:26.790Z,100636.30
2018-06-18T04:06:38.006Z,100637.03
2018-06-18T04:07:49.152Z,100635.58
2018-06-18T04:09:00.337Z,100641.50
2018-06-18T04:10:11.437Z,100643.09
2018-06-18T04:11:22.637Z,100643.20
2018-06-18T04:12:28.664Z,100648.13
2018-06-18T04:13:34.627Z,100646.05
2018-06-18T04:14:40.604Z,100643.51
2018-06-18T04:15:46.219Z,100649.08
2018-06-18T04:16:52.063Z,100644.33
2018-06-18T04:17:57.983Z,100646.51
2018-06-18T04:19:03.958Z,100641.55
2018-06-18T04:20:09.902Z,100643.16
2018-06-18T04:21:15.882Z,100646.63
2018-06-18T04:22:21.848Z,100646.51
2018-06-18T04:23:27.784Z,100638.41
2018-06-18T04:24:33.783Z,100642.77
2018-06-18T04:25:39.755Z,100638.28
2018-06-18T04:26:45.672Z,100633.17
2018-06-18T04:27:51.598Z,100641.73
2018-06-18T04:28:57.562Z,100641.61
2018-06-18T04:30:03.690Z,100655.20
2018-06-18T04:31:09.666Z,100657.98
2018-06-18T04:32:15.606Z,100660.52
2018-06-18T04:33:25.766Z,100662.18
2018-06-18T04:34:38.264Z,100665.94
2018-06-18T04:35:44.209Z,100666.48
2018-06-18T04:36:50.185Z,100661.02
2018-06-18T04:37:56.127Z,100666.91
2018-06-18T04:39:02.080Z,100661.67
2018-06-18T04:40:09.008Z,100661.44
2018-06-18T04:41:14.970Z,100657.31
2018-06-18T04:42:26.003Z,100662.25
2018-06-18T04:44:35.876Z,100659.46
2018-06-18T04:45:42.749Z,100666.73
2018-06-18T04:46:53.986Z,100670.12
2018-06-18T04:48:05.219Z,100669.27
2018-06-18T04:49:16.488Z,100662.41
2018-06-18T04:50:27.548Z,100667.58
2018-06-18T04:51:33.471Z,100661.80
2018-06-18T04:52:39.474Z,100668.61
2018-06-18T04:53:45.357Z,100668.70
2018-06-18T04:54:51.335Z,100665.77
2018-06-18T04:55:57.279Z,100669.88
2018-06-18T04:57:03.426Z,100675.72
2018-06-18T04:58:09.046Z,100674.48
2018-06-18T04:59:14.576Z,100673.14
2018-06-18T05:01:27.412Z,100673.63
2018-06-18T05:02:32.993Z,100677.17
2018-06-18T05:03:38.845Z,100674.41
2018-06-18T05:04:44.791Z,100675.11
2018-06-18T05:05:50.724Z,100675.75
2018-06-18T05:06:56.823Z,100677.08
2018-06-18T05:08:23.584Z,100673.09
2018-06-18T05:09:50.694Z,100678.53
2018-06-18T05:10:56.632Z,100683.97
2018-06-18T05:12:02.600Z,100682.04
2018-06-18T05:13:08.198Z,100677.93
2018-06-18T05:14:14.062Z,100677.53
2018-06-18T05:15:22.551Z,100678.56
2018-06-18T05:16:28.558Z,100670.30
2018-06-18T05:17:34.494Z,100669.65
2018-06-18T05:18:40.591Z,100673.61
2018-06-18T05:19:46.564Z,100675.02
2018-06-18T05:20:52.515Z,100672.45
2018-06-18T05:21:58.783Z,100675.91
2018-06-18T05:23:08.775Z,100675.27
2018-06-18T05:24:14.750Z,100663.23
2018-06-18T05:25:21.025Z,100667.31
2018-06-18T05:26:27.129Z,100678.09
2018-06-18T05:27:35.280Z,100679.75
2018-06-18T05:28:41.250Z,100682.17
2018-06-18T05:29:47.447Z,100683.38
2018-06-18T05:30:53.670Z,100683.70
2018-06-18T05:31:59.606Z,100684.30
2018-06-18T05:33:05.559Z,100684.43
2018-06-18T05:34:13.131Z,100678.05
2018-06-18T05:35:19.399Z,100677.69
2018-06-18T05:36:25.528Z,100679.38
2018-06-18T05:37:45.749Z,100680.35
2018-06-18T05:38:51.668Z,100680.39
2018-06-18T05:39:57.640Z,100682.50
2018-06-18T05:41:03.932Z,100680.36
2018-06-18T05:42:09.912Z,100674.30
2018-06-18T05:43:15.883Z,100679.42
2018-06-18T05:44:21.798Z,100678.58
2018-06-18T05:45:27.780Z,100680.03
2018-06-18T05:46:33.829Z,100682.34
2018-06-18T05:47:39.956Z,100678.63
2018-06-18T05:48:46.062Z,100690.05
2018-06-18T05:49:52.115Z,100687.17
2018-06-18T05:50:58.079Z,100687.57
2018-06-18T05:52:04.043Z,100690.23
2018-06-18T05:53:09.751Z,100694.51
2018-06-18T05:54:15.949Z,100694.91
2018-06-18T05:55:21.887Z,100695.78
2018-06-18T05:56:27.816Z,100695.33
2018-06-18T05:57:34.096Z,100700.20
2018-06-18T05:58:40.035Z,100693.55
2018-06-18T05:59:46.091Z,100694.90
2018-06-18T06:00:52.055Z,100689.23
2018-06-18T06:01:58.035Z,100696.28
2018-06-18T06:03:03.967Z,100693.16
2018-06-18T06:04:09.906Z,100694.76
2018-06-18T06:05:16.055Z,100699.35
2018-06-18T06:06:21.979Z,100703.25
2018-06-18T06:07:27.924Z,100705.69
2018-06-18T06:08:33.854Z,100703.38
2018-06-18T06:09:39.827Z,100712.00
2018-06-18T06:10:45.810Z,100710.91
2018-06-18T06:11:51.935Z,100713.61
2018-06-18T06:12:58.090Z,100714.70
2018-06-18T06:14:04.335Z,100719.34
2018-06-18T06:15:10.311Z,100720.79
2018-06-18T06:16:16.264Z,100721.53
2018-06-18T06:17:22.245Z,100719.94
2018-06-18T06:18:28.164Z,100720.68
2018-06-18T06:19:34.148Z,100721.64
2018-06-18T06:20:50.590Z,100717.77
2018-06-18T06:21:56.679Z,100712.11
2018-06-18T06:23:02.627Z,100716.32
2018-06-18T06:24:08.603Z,100708.44
2018-06-18T06:25:14.583Z,100708.43
2018-06-18T06:26:20.598Z,100708.53
2018-06-18T06:27:26.207Z,100708.78
2018-06-18T06:28:32.117Z,100707.94
2018-06-18T06:29:38.141Z,100715.80
2018-06-18T06:30:44.294Z,100719.64
2018-06-18T06:31:50.236Z,100717.35
2018-06-18T06:32:56.183Z,100711.33
2018-06-18T06:34:01.811Z,100710.33
2018-06-18T06:35:28.323Z,100713.36
2018-06-18T06:36:34.260Z,100720.38
2018-06-18T06:37:40.197Z,100719.40
2018-06-18T06:38:46.142Z,100725.19
2018-06-18T06:39:52.319Z,100722.99
2018-06-18T06:40:58.255Z,100721.30
2018-06-18T06:42:14.182Z,100723.57
2018-06-18T06:43:20.165Z,100722.92
2018-06-18T06:44:26.162Z,100726.14
2018-06-18T06:45:32.118Z,100727.58
2018-06-18T06:46:38.062Z,100726.20
2018-06-18T06:47:44.180Z,100730.50
2018-06-18T06:48:50.498Z,100730.56
2018-06-18T06:49:56.681Z,100728.44
2018-06-18T06:51:02.622Z,100733.37
2018-06-18T06:52:08.579Z,100733.45
2018-06-18T06:53:14.285Z,100737.58
2018-06-18T06:54:20.144Z,100736.94
2018-06-18T06:55:26.174Z,100739.59
2018-06-18T06:56:32.164Z,100735.60
2018-06-18T06:57:38.099Z,100737.02
2018-06-18T06:58:44.018Z,100730.20
2018-06-18T06:59:49.959Z,100735.00
2018-06-18T07:00:55.952Z,100731.25
2018-06-18T07:02:02.056Z,100725.58
2018-06-18T07:03:07.970Z,100723.05
2018-06-18T07:04:13.980Z,100718.78
2018-06-18T07:05:20.038Z,100713.81
2018-06-18T07:06:26.108Z,100715.52
2018-06-18T07:07:32.048Z,100712.73
2018-06-18T07:08:37.967Z,100713.09
2018-06-18T07:09:43.898Z,100720.91
2018-06-18T07:10:49.842Z,100721.48
2018-06-18T07:11:55.804Z,100726.88
2018-06-18T07:13:02.258Z,100727.63
2018-06-18T07:14:08.440Z,100727.39
2018-06-18T07:15:14.034Z,100724.50
2018-06-18T07:16:19.858Z,100721.75
2018-06-18T07:17:25.859Z,100727.55
2018-06-18T07:18:32.154Z,100723.02
2018-06-18T07:19:38.103Z,100716.68
2018-06-18T07:20:44.027Z,100719.09
2018-06-18T07:21:50.066Z,100716.86
2018-06-18T07:22:56.019Z,100720.63
2018-06-18T07:24:01.980Z,100722.17
2018-06-18T07:25:08.041Z,100727.78
2018-06-18T07:26:13.956Z,100718.22
2018-06-18T07:27:19.895Z,100723.08
2018-06-18T07:28:25.837Z,100725.97
2018-06-18T07:29:31.882Z,100729.70
2018-06-18T07:30:37.808Z,100733.86
2018-06-18T07:31:43.940Z,100732.90
2018-06-18T07:32:49.857Z,100737.92
2018-06-18T07:33:55.916Z,100736.63
2018-06-18T07:35:01.836Z,100739.45
2018-06-18T07:36:07.835Z,100740.77
2018-06-18T07:37:13.800Z,100746.91
2018-06-18T07:38:19.741Z,100747.36
2018-06-18T07:39:25.701Z,100747.99
2018-06-18T07:40:31.869Z,100750.80
2018-06-18T07:41:37.952Z,100754.52
2018-06-18T07:42:43.990Z,100749.31
2018-06-18T07:43:50.247Z,100744.20
2018-06-18T07:44:56.227Z,100735.94
2018-06-18T07:46:02.446Z,100743.47
2018-06-18T07:47:08.395Z,100739.42
2018-06-18T07:48:14.750Z,100743.40
2018-06-18T07:49:20.737Z,100742.53
2018-06-18T07:50:27.225Z,100748.83
2018-06-18T07:51:33.296Z,100742.83
2018-06-18T07:52:39.125Z,100745.59
2018-06-18T07:53:45.033Z,100742.24
2018-06-18T07:54:50.944Z,100740.75
2018-06-18T07:55:57.264Z,100746.83
2018-06-18T07:57:03.211Z,100744.58
2018-06-18T07:58:08.880Z,100745.77
2018-06-18T07:59:14.920Z,100747.25
2018-06-18T08:00:20.940Z,100746.77
2018-06-18T08:01:26.646Z,100743.88
2018-06-18T08:02:32.240Z,100746.91
2018-06-18T08:03:38.140Z,100745.66
2018-06-18T08:04:44.290Z,100747.76
2018-06-18T08:05:50.204Z,100748.44
2018-06-18T08:06:56.171Z,100752.85
2018-06-18T08:08:02.115Z,100752.95
2018-06-18T08:09:12.347Z,100745.53
2018-06-18T08:10:18.308Z,100741.11
2018-06-18T08:11:24.268Z,100739.34
2018-06-18T08:12:30.325Z,100738.73
2018-06-18T08:13:36.354Z,100740.02
2018-06-18T08:14:42.295Z,100746.44
2018-06-18T08:15:48.330Z,100750.62
2018-06-18T08:16:54.282Z,100751.95
2018-06-18T08:18:00.279Z,100745.70
2018-06-18T08:19:06.568Z,100755.78
2018-06-18T08:20:15.474Z,100757.75
2018-06-18T08:21:21.195Z,100755.27
2018-06-18T08:22:26.941Z,100758.05
2018-06-18T08:23:32.683Z,100753.48
2018-06-18T08:24:38.403Z,100752.11
2018-06-18T08:25:44.095Z,100752.71
2018-06-18T08:26:50.133Z,100757.80
2018-06-18T08:27:56.327Z,100753.05
2018-06-18T08:29:02.439Z,100755.95
2018-06-18T08:30:08.851Z,100753.03
2018-06-18T08:31:14.902Z,100762.81
2018-06-18T08:32:20.725Z,100763.98
2018-06-18T08:33:26.855Z,100768.16
2018-06-18T08:34:32.842Z,100767.31
2018-06-18T08:35:38.525Z,100760.81
2018-06-18T08:36:44.509Z,100759.44
2018-06-18T08:37:51.294Z,100763.99
2018-06-18T08:38:57.242Z,100765.72
2018-06-18T08:40:04.045Z,100766.65
2018-06-18T08:41:10.067Z,100757.72
2018-06-18T08:42:16.059Z,100757.48
2018-06-18T08:43:22.016Z,100759.45
2018-06-18T08:44:28.075Z,100754.67
2018-06-18T08:45:34.132Z,100754.23
2018-06-18T08:46:40.107Z,100753.69
2018-06-18T08:47:46.068Z,100754.81
2018-06-18T08:48:57.345Z,100761.58
2018-06-18T08:50:08.591Z,100759.00
2018-06-18T08:51:19.854Z,100764.78
2018-06-18T08:52:30.914Z,100755.80
2018-06-18T08:53:41.892Z,100753.83
2018-06-18T08:54:53.021Z,100759.22
2018-06-18T08:56:04.049Z,100756.41
2018-06-18T08:57:15.383Z,100748.89
2018-06-18T08:58:26.462Z,100751.59
2018-06-18T08:59:37.564Z,100738.87
2018-06-18T09:00:48.689Z,100748.65
2018-06-18T09:01:55.272Z,100748.05
2018-06-18T09:04:04.281Z,100749.07
2018-06-18T09:05:13.083Z,100750.61
2018-06-18T09:06:19.550Z,100743.88
2018-06-18T09:07:26.586Z,100747.34
2018-06-18T09:08:35.602Z,100759.16
2018-06-18T09:09:41.337Z,100753.66
2018-06-18T09:10:47.317Z,100748.08
2018-06-18T09:11:53.259Z,100749.44
2018-06-18T09:13:00.763Z,100748.52
2018-06-18T09:14:07.571Z,100747.55
2018-06-18T09:15:13.551Z,100751.14
2018-06-18T09:16:19.235Z,100748.14
2018-06-18T09:17:25.096Z,100749.42
2018-06-18T09:18:31.087Z,100751.98
2018-06-18T09:19:36.706Z,100751.29
2018-06-18T09:20:42.262Z,100744.85
2018-06-18T09:21:48.115Z,100747.05
2018-06-18T09:22:54.075Z,100740.39
2018-06-18T09:24:00.046Z,100743.61
2018-06-18T09:25:06.087Z,100742.91
2018-06-18T09:26:12.039Z,100740.53
2018-06-18T09:27:18.030Z,100736.44
2018-06-18T09:28:24.012Z,100740.39
2018-06-18T09:29:29.963Z,100736.73
2018-06-18T09:30:35.980Z,100738.12
2018-06-18T09:31:47.566Z,100741.02
2018-06-18T09:32:53.535Z,100739.22
2018-06-18T09:33:59.573Z,100733.36
2018-06-18T09:35:05.560Z,100728.04
2018-06-18T09:36:12.162Z,100726.69
2018-06-18T09:37:18.187Z,100730.28
2018-06-18T09:38:24.325Z,100727.57
2018-06-18T09:39:30.279Z,100729.41
2018-06-18T09:40:36.226Z,100726.08
2018-06-18T09:41:42.155Z,100735.80
2018-06-18T09:42:48.112Z,100732.34
2018-06-18T09:43:54.066Z,100730.81
2018-06-18T09:45:00.094Z,100729.02
2018-06-18T09:46:06.117Z,100733.13
2018-06-18T09:47:12.169Z,100721.47
2018-06-18T09:48:18.403Z,100722.59
2018-06-18T09:49:29.531Z,100717.69
2018-06-18T09:50:40.855Z,100711.76
2018-06-18T09:51:52.115Z,100714.23
2018-06-18T09:53:03.473Z,100719.20
2018-06-18T09:54:14.714Z,100715.32
2018-06-18T09:55:25.939Z,100709.02
2018-06-18T09:56:37.248Z,100712.46
2018-06-18T09:57:48.207Z,100722.61
2018-06-18T09:58:59.491Z,100716.75
2018-06-18T10:00:11.007Z,100720.09
2018-06-18T10:01:22.075Z,100714.67
2018-06-18T10:02:28.725Z,100723.48
2018-06-18T10:03:34.773Z,100718.87
2018-06-18T10:04:40.779Z,100715.09
2018-06-18T10:05:46.779Z,100705.46
2018-06-18T10:06:52.764Z,100707.45
2018-06-18T10:07:58.737Z,100710.77
2018-06-18T10:09:07.273Z,100710.09
2018-06-18T10:10:13.255Z,100711.09
2018-06-18T10:11:19.232Z,100707.97
2018-06-18T10:12:25.411Z,100711.24
2018-06-18T10:13:31.412Z,100701.37
2018-06-18T10:14:37.428Z,100706.83
2018-06-18T10:15:43.407Z,100703.71
2018-06-18T10:16:49.419Z,100706.44
2018-06-18T10:17:55.392Z,100710.27
2018-06-18T10:19:01.635Z,100705.44
2018-06-18T10:20:07.631Z,100711.00
2018-06-18T10:21:13.245Z,100707.38
2018-06-18T10:22:19.239Z,100712.66
2018-06-18T10:23:25.256Z,100709.09
2018-06-18T10:24:31.245Z,100703.34
2018-06-18T10:25:37.579Z,100709.53
2018-06-18T10:26:43.211Z,100697.42
2018-06-18T10:27:48.899Z,100708.80
2018-06-18T10:28:54.864Z,100707.13
2018-06-18T10:30:00.871Z,100713.73
2018-06-18T10:31:06.829Z,100710.41
2018-06-18T10:32:18.062Z,100713.81
2018-06-18T10:33:29.070Z,100713.44
2018-06-18T10:34:40.072Z,100708.08
2018-06-18T10:35:51.106Z,100705.70
2018-06-18T10:37:02.238Z,100702.16
2018-06-18T10:38:13.604Z,100701.89
2018-06-18T10:39:24.638Z,100703.77
2018-06-18T10:40:35.835Z,100704.59
2018-06-18T10:41:46.845Z,100703.26
2018-06-18T10:42:57.534Z,100697.69
2018-06-18T10:44:03.455Z,100709.78
2018-06-18T10:45:09.465Z,100698.64
2018-06-18T10:46:15.446Z,100702.34
2018-06-18T10:47:21.259Z,100701.68
2018-06-18T10:48:27.246Z,100701.50
2018-06-18T10:49:33.246Z,100697.52
2018-06-18T10:50:39.247Z,100702.01
2018-06-18T10:51:45.180Z,100702.44
2018-06-18T10:52:51.157Z,100695.20
2018-06-18T10:53:57.134Z,100698.95
2018-06-18T10:55:03.375Z,100689.86
2018-06-18T10:56:09.387Z,100692.17
2018-06-18T10:57:15.349Z,100692.44
2018-06-18T10:58:21.359Z,100694.87
2018-06-18T10:59:27.293Z,100686.14
2018-06-18T11:00:33.339Z,100693.49
2018-06-18T11:01:39.575Z,100692.95
2018-06-18T11:02:45.655Z,100688.56
2018-06-18T11:03:52.505Z,100685.30
2018-06-18T11:05:03.062Z,100690.61
2018-06-18T11:06:14.241Z,100684.16
2018-06-18T11:07:20.246Z,100686.11
2018-06-18T11:08:26.199Z,100683.14
2018-06-18T11:09:32.224Z,100689.02
2018-06-18T11:10:38.208Z,100685.38
2018-06-18T11:11:44.210Z,100686.45
2018-06-18T11:12:50.164Z,100685.16
2018-06-18T11:13:56.227Z,100681.89
2018-06-18T11:15:02.201Z,100688.30
2018-06-18T11:16:08.297Z,100683.91
2018-06-18T11:17:19.701Z,100681.98
2018-06-18T11:18:30.788Z,100679.47
2018-06-18T11:19:42.035Z,100676.17
2018-06-18T11:20:53.130Z,100675.16
2018-06-18T11:22:05.614Z,100678.52
2018-06-18T11:23:16.768Z,100678.05
2018-06-18T11:24:27.743Z,100673.70
2018-06-18T11:25:38.910Z,100674.83
2018-06-18T11:26:50.398Z,100669.87
2018-06-18T11:27:56.499Z,100671.97
2018-06-18T11:29:02.524Z,100665.03
2018-06-18T11:30:08.718Z,100660.98
2018-06-18T11:31:14.928Z,100674.00
2018-06-18T11:32:21.249Z,100668.81
2018-06-18T11:33:27.378Z,100665.78
2018-06-18T11:34:33.343Z,100663.77
2018-06-18T11:35:39.469Z,100666.34
2018-06-18T11:36:45.712Z,100670.16
2018-06-18T11:37:51.715Z,100675.36
2018-06-18T11:38:57.686Z,100674.72
2018-06-18T11:40:03.756Z,100668.29
2018-06-18T11:41:09.776Z,100673.20
2018-06-18T11:42:15.810Z,100671.45
2018-06-18T11:43:21.972Z,100670.87
2018-06-18T11:44:28.124Z,100669.64
2018-06-18T11:45:34.057Z,100670.75
2018-06-18T11:46:40.108Z,100672.61
2018-06-18T11:47:46.133Z,100674.13
2018-06-18T11:48:52.275Z,100674.22
2018-06-18T11:49:58.265Z,100672.27
2018-06-18T11:51:04.267Z,100674.33
2018-06-18T11:52:10.291Z,100669.75
2018-06-18T11:53:16.784Z,100671.83
2018-06-18T11:54:22.849Z,100669.94
2018-06-18T11:55:29.194Z,100668.13
2018-06-18T11:56:35.147Z,100661.26
2018-06-18T11:57:41.244Z,100669.47
2018-06-18T11:59:51.237Z,100671.08
2018-06-18T12:01:02.499Z,100662.96
2018-06-18T12:02:13.632Z,100669.35
2018-06-18T12:03:24.600Z,100661.05
2018-06-18T12:04:35.474Z,100661.00
2018-06-18T12:05:46.543Z,100662.58
2018-06-18T12:06:57.724Z,100652.53
2018-06-18T12:08:09.173Z,100659.92
2018-06-18T12:09:20.402Z,100661.40
2018-06-18T12:10:26.514Z,100656.36
2018-06-18T12:11:32.448Z,100654.53
2018-06-18T12:12:38.045Z,100659.21
2018-06-18T12:13:43.942Z,100661.79
2018-06-18T12:14:49.945Z,100665.19
2018-06-18T12:15:56.056Z,100656.63
2018-06-18T12:17:02.083Z,100656.75
2018-06-18T12:18:08.159Z,100660.56
2018-06-18T12:19:14.227Z,100648.17
2018-06-18T12:20:20.204Z,100651.11
2018-06-18T12:21:26.272Z,100649.94
2018-06-18T12:22:32.425Z,100657.80
2018-06-18T12:23:38.742Z,100657.91
2018-06-18T12:24:44.733Z,100658.58
2018-06-18T12:25:51.151Z,100660.38
2018-06-18T12:26:57.152Z,100657.38
2018-06-18T12:28:03.239Z,100657.35
2018-06-18T12:29:10.051Z,100664.03
2018-06-18T12:30:16.370Z,100660.59
2018-06-18T12:31:22.356Z,100658.84
2018-06-18T12:32:28.333Z,100662.39
2018-06-18T12:33:34.315Z,100664.14
2018-06-18T12:34:40.636Z,100661.07
2018-06-18T12:35:46.628Z,100655.44
2018-06-18T12:36:52.664Z,100664.14
2018-06-18T12:37:58.743Z,100651.95
2018-06-18T12:39:06.702Z,100653.30
2018-06-18T12:40:12.677Z,100659.31
2018-06-18T12:41:18.920Z,100650.55
2018-06-18T12:42:24.952Z,100652.38
2018-06-18T12:43:36.151Z,100653.77
2018-06-18T12:44:47.276Z,100646.35
2018-06-18T12:46:00.416Z,100650.87
2018-06-18T12:47:11.829Z,100653.40
2018-06-18T12:48:23.091Z,100656.66
2018-06-18T12:49:34.374Z,100648.10
2018-06-18T12:50:45.510Z,100643.80
2018-06-18T12:51:56.490Z,100641.53